Time;durP1;ratioP1;P1;durP2;ratioP2;P2;SDS_P1;SDS_P2;PMS_P1;PMS_P2;Temp;Humidity;BMP_temperature;BMP_pressure;BME280_temperature;BME280_humidity;BME280_pressure;Samples;Min_cycle;Max_cycle;Signal;HPM_P1;HPM_P2
2021/03/09 00:01:03;;;;;;;;;;;;;;;30.06;21.58;100769.38;5123532;28;882;-41
2021/03/09 00:03:28;;;;;;;;;;;;;;;30.02;21.65;100773.53;5123629;28;798;-38
2021/03/09 00:05:53;;;;;;;;;;;;;;;29.36;22.59;100781.09;5123512;28;791;-36
2021/03/09 00:08:19;;;;;;;;;;;;;;;28.93;23.80;100781.94;5123822;28;857;-35
2021/03/09 00:10:47;;;;;;;;;;;;;;;29.04;23.43;100775.19;5123256;28;1001;-40
2021/03/09 00:13:12;;;;;;;;;;;;;;;29.82;22.26;100770.72;5123664;28;1914;-42
2021/03/09 00:15:37;;;;;;;;;;;;;;;29.89;22.18;100766.19;5124023;28;813;-37
2021/03/09 00:18:03;;;;;;;;;;;;;;;30.14;21.99;100772.94;5123477;28;818;-40
2021/03/09 00:20:28;;;;;;;;;;;;;;;29.98;22.16;100769.53;5123608;28;831;-36
2021/03/09 00:22:53;;;;;;;;;;;;;;;29.92;22.12;100776.63;5123676;28;847;-40
2021/03/09 00:25:22;;;;;;;;;;;;;;;29.31;22.89;100778.13;5123320;28;760;-41
2021/03/09 00:27:47;;;;;;;;;;;;;;;28.54;24.41;100781.38;5123017;28;1001;-41
2021/03/09 00:30:13;;;;;;;;;;;;;;;28.72;24.87;100779.06;5123056;28;813;-40
2021/03/09 00:32:38;;;;;;;;;;;;;;;29.02;24.31;100778.09;5123224;28;1909;-40
2021/03/09 00:35:03;;;;;;;;;;;;;;;28.96;24.40;100779.69;5122939;28;831;-42
2021/03/09 00:37:29;;;;;;;;;;;;;;;29.33;23.69;100776.03;5123281;28;776;-41
2021/03/09 00:39:54;;;;;;;;;;;;;;;29.83;22.94;100775.09;5123251;28;763;-41
2021/03/09 00:42:31;;;;;;;;;;;;;;;29.23;23.57;100768.25;5122998;28;1008;-39
2021/03/09 00:44:57;;;;;;;;;;;;;;;28.76;25.17;100771.38;5123352;28;807;-39
2021/03/09 00:47:22;;;;;;;;;;;;;;;28.85;25.24;100772.94;5123435;28;764;-35
2021/03/09 00:49:47;;;;;;;;;;;;;;;28.28;25.78;100766.50;5122725;28;885;-37
2021/03/09 00:52:13;;;;;;;;;;;;;;;28.68;25.35;100763.38;5123067;28;1909;-40
2021/03/09 00:54:38;;;;;;;;;;;;;;;28.81;25.64;100762.69;5123353;28;768;-40
2021/03/09 00:57:03;;;;;;;;;;;;;;;28.95;25.25;100763.63;5123283;28;957;-39
2021/03/09 00:59:29;;;;;;;;;;;;;;;29.18;24.06;100759.88;5123064;28;763;-37
2021/03/09 01:01:54;;;;;;;;;;;;;;;29.13;24.00;100760.47;5123297;28;851;-40
2021/03/09 01:04:19;;;;;;;;;;;;;;;29.23;24.75;100762.03;5122957;28;810;-37
2021/03/09 01:06:45;;;;;;;;;;;;;;;28.90;25.52;100766.94;5122736;28;831;-37
2021/03/09 01:09:11;;;;;;;;;;;;;;;28.98;25.05;100771.41;5120375;28;854;-39
2021/03/09 01:12:07;;;;;;;;;;;;;;;28.99;25.34;100766.81;5118952;28;993;-39
2021/03/09 01:14:32;;;;;;;;;;;;;;;29.75;24.21;100767.13;5119820;28;870;-40
2021/03/09 01:16:57;;;;;;;;;;;;;;;29.32;24.19;100768.94;5119928;28;826;-38
2021/03/09 01:19:23;;;;;;;;;;;;;;;29.26;24.08;100767.84;5118854;28;1446;-37
2021/03/09 01:21:48;;;;;;;;;;;;;;;29.00;25.56;100774.75;5119848;28;774;-38
2021/03/09 01:24:13;;;;;;;;;;;;;;;28.75;25.67;100777.84;5119741;28;741;-36
2021/03/09 01:26:38;;;;;;;;;;;;;;;28.85;25.89;100777.50;5118999;28;954;-36
2021/03/09 01:29:04;;;;;;;;;;;;;;;28.75;26.37;100772.41;5119673;28;790;-39
2021/03/09 01:31:29;;;;;;;;;;;;;;;29.53;25.01;100772.66;5119549;28;822;-39
2021/03/09 01:33:54;;;;;;;;;;;;;;;29.34;24.72;100781.25;5118966;28;1976;-39
2021/03/09 01:36:20;;;;;;;;;;;;;;;29.17;25.04;100785.31;5119604;28;786;-40
2021/03/09 01:38:45;;;;;;;;;;;;;;;29.44;25.22;100778.22;5119405;28;781;-38
2021/03/09 01:41:11;;;;;;;;;;;;;;;29.27;25.23;100785.81;5118452;28;974;-38
2021/03/09 01:43:37;;;;;;;;;;;;;;;29.11;25.69;100791.50;5119150;28;1279;-39
2021/03/09 01:46:02;;;;;;;;;;;;;;;28.88;26.16;100787.13;5119372;28;788;-39
2021/03/09 01:48:30;;;;;;;;;;;;;;;30.04;23.86;100779.59;5118787;28;740;-40
2021/03/09 01:50:56;;;;;;;;;;;;;;;29.58;24.27;100789.97;5119151;28;756;-38
2021/03/09 01:53:21;;;;;;;;;;;;;;;29.46;24.03;100784.25;5119100;28;1938;-40
2021/03/09 01:55:46;;;;;;;;;;;;;;;29.02;25.71;100785.38;5100375;28;1025;-41
2021/03/09 01:58:12;;;;;;;;;;;;;;;29.04;25.94;100789.59;5118914;28;850;-39
2021/03/09 02:00:38;;;;;;;;;;;;;;;29.49;25.50;100795.75;5118570;28;856;-40
2021/03/09 02:03:04;;;;;;;;;;;;;;;29.58;25.04;100792.69;5100687;28;788;-42
2021/03/09 02:05:29;;;;;;;;;;;;;;;28.90;26.63;100791.31;5118630;28;859;-37
2021/03/09 02:07:54;;;;;;;;;;;;;;;29.39;24.99;100801.53;5118780;28;775;-39
2021/03/09 02:10:19;;;;;;;;;;;;;;;29.21;24.97;100800.16;5118673;28;774;-40
2021/03/09 02:13:03;;;;;;;;;;;;;;;29.32;25.99;100798.75;5118199;28;1913;-39
2021/03/09 02:15:39;;;;;;;;;;;;;;;29.55;24.70;100800.38;5118205;28;784;-39
2021/03/09 02:18:07;;;;;;;;;;;;;;;29.25;25.23;100798.69;5100583;28;795;-38
2021/03/09 02:20:51;;;;;;;;;;;;;;;28.92;26.71;100804.66;5118419;28;818;-40
2021/03/09 02:23:26;;;;;;;;;;;;;;;28.19;27.88;100798.22;5118360;28;863;-38
2021/03/09 02:26:10;;;;;;;;;;;;;;;29.64;25.13;100798.38;5100084;28;1040;-36
2021/03/09 02:28:39;;;;;;;;;;;;;;;29.96;24.55;100801.47;5118312;28;775;-33
2021/03/09 02:31:06;;;;;;;;;;;;;;;30.10;24.59;100806.94;5118230;28;799;-39
2021/03/09 02:33:42;;;;;;;;;;;;;;;30.12;24.16;100815.72;5118194;28;1964;-41
2021/03/09 02:36:08;;;;;;;;;;;;;;;29.30;25.22;100826.06;5099892;28;802;-39
2021/03/09 02:38:53;;;;;;;;;;;;;;;29.02;26.59;100828.72;5118323;28;835;-41
2021/03/09 02:41:19;;;;;;;;;;;;;;;28.78;26.18;100826.16;5099072;28;954;-39
2021/03/09 02:43:45;;;;;;;;;;;;;;;29.26;25.65;100840.19;5098737;28;1310;-40
2021/03/09 02:46:11;;;;;;;;;;;;;;;29.26;25.82;100846.41;5117840;28;855;-35
2021/03/09 02:48:36;;;;;;;;;;;;;;;29.66;25.19;100853.25;5117635;28;839;-38
2021/03/09 02:51:01;;;;;;;;;;;;;;;29.57;24.84;100858.78;5099960;28;751;-40
2021/03/09 02:53:29;;;;;;;;;;;;;;;29.31;24.87;100859.41;5099485;28;1906;-38
2021/03/09 02:55:54;;;;;;;;;;;;;;;28.72;26.58;100857.56;5099434;28;978;-38
2021/03/09 02:58:19;;;;;;;;;;;;;;;28.93;26.20;100860.47;5099444;28;704;-38
2021/03/09 03:00:45;;;;;;;;;;;;;;;28.90;26.17;100866.28;5117774;28;736;-39
2021/03/09 03:03:12;;;;;;;;;;;;;;;29.10;25.85;100866.50;5099181;28;862;-38
2021/03/09 03:05:37;;;;;;;;;;;;;;;28.88;26.06;100873.75;5118081;28;787;-38
2021/03/09 03:08:07;;;;;;;;;;;;;;;29.22;25.30;100883.06;5117609;28;808;-39
2021/03/09 03:10:32;;;;;;;;;;;;;;;29.36;24.28;100884.06;5117270;28;743;-39
2021/03/09 03:12:57;;;;;;;;;;;;;;;29.25;24.66;100887.25;5098686;28;1902;-43
2021/03/09 03:15:23;;;;;;;;;;;;;;;29.54;24.92;100894.41;5098585;28;1031;-42
2021/03/09 03:17:48;;;;;;;;;;;;;;;29.76;24.76;100905.22;5099081;28;767;-43
2021/03/09 03:20:15;;;;;;;;;;;;;;;29.64;24.68;100896.81;5099313;28;775;-44
2021/03/09 03:22:41;;;;;;;;;;;;;;;29.47;24.77;100907.06;5117499;28;819;-44
2021/03/09 03:25:07;;;;;;;;;;;;;;;29.56;23.51;100914.00;5117076;28;771;-42
2021/03/09 03:27:32;;;;;;;;;;;;;;;29.25;24.09;100927.91;5099227;28;934;-42
2021/03/09 03:29:58;;;;;;;;;;;;;;;28.54;26.07;100924.81;5098933;28;822;-44
2021/03/09 03:32:23;;;;;;;;;;;;;;;28.56;26.20;100937.09;5116374;28;1890;-42
2021/03/09 03:34:48;;;;;;;;;;;;;;;28.64;25.92;100936.19;5117317;28;751;-42
2021/03/09 03:37:13;;;;;;;;;;;;;;;29.54;24.42;100926.94;5098578;28;975;-44
2021/03/09 03:39:39;;;;;;;;;;;;;;;28.76;25.89;100935.69;5117128;28;735;-43
2021/03/09 03:42:35;;;;;;;;;;;;;;;29.41;24.11;100930.34;5117069;28;1028;-44
2021/03/09 03:45:00;;;;;;;;;;;;;;;29.29;24.17;100938.19;5100502;28;1111;-43
2021/03/09 03:47:25;;;;;;;;;;;;;;;28.57;26.09;100948.78;5116491;28;780;-42
2021/03/09 03:49:50;;;;;;;;;;;;;;;29.68;20.92;100956.88;5116694;28;842;-42
2021/03/09 03:52:24;;;;;;;;;;;;;;;29.82;19.75;100958.69;5116780;28;1909;-42
2021/03/09 03:54:55;;;;;;;;;;;;;;;29.38;20.55;100954.31;5116505;28;815;-40
2021/03/09 03:57:30;;;;;;;;;;;;;;;29.90;20.54;100968.53;5098053;28;950;-43
2021/03/09 03:59:56;;;;;;;;;;;;;;;29.52;20.74;100976.94;5098557;28;1164;-41
2021/03/09 04:02:21;;;;;;;;;;;;;;;28.91;21.13;100970.84;5098549;28;783;-43
2021/03/09 04:04:48;;;;;;;;;;;;;;;28.19;23.11;100974.88;5098713;28;886;-42
2021/03/09 04:07:14;;;;;;;;;;;;;;;28.43;22.65;100977.50;5116438;28;868;-42
2021/03/09 04:09:39;;;;;;;;;;;;;;;29.52;21.25;100985.91;5116510;28;825;-42
2021/03/09 04:12:16;;;;;;;;;;;;;;;29.62;20.98;100985.63;5116248;28;1914;-43
2021/03/09 04:14:42;;;;;;;;;;;;;;;29.96;20.58;100994.03;5100280;28;789;-41
2021/03/09 04:17:07;;;;;;;;;;;;;;;27.16;13.21;100986.78;5116549;28;767;-41
2021/03/09 04:19:32;;;;;;;;;;;;;;;22.53;15.93;100988.72;5116501;28;870;-40
2021/03/09 04:21:58;;;;;;;;;;;;;;;22.12;16.30;100988.97;5098657;28;791;-39
2021/03/09 04:24:25;;;;;;;;;;;;;;;22.18;15.99;100999.09;5116466;28;763;-43
2021/03/09 04:26:50;;;;;;;;;;;;;;;22.06;16.33;100995.72;5098652;28;1003;-44
2021/03/09 04:29:15;;;;;;;;;;;;;;;21.00;17.07;101000.63;5098385;28;824;-44
2021/03/09 04:31:41;;;;;;;;;;;;;;;21.95;16.68;101020.84;5116437;28;767;-45
2021/03/09 04:34:06;;;;;;;;;;;;;;;21.39;16.71;101015.97;5116995;28;1979;-44
2021/03/09 04:36:31;;;;;;;;;;;;;;;20.24;19.81;101010.66;5116627;28;764;-44
2021/03/09 04:38:57;;;;;;;;;;;;;;;18.03;19.91;101013.69;5116287;28;740;-44
2021/03/09 04:41:24;;;;;;;;;;;;;;;19.24;19.43;101005.38;5098132;28;938;-41
2021/03/09 04:43:49;;;;;;;;;;;;;;;18.97;19.30;101006.59;5116319;28;1167;-38
2021/03/09 04:46:14;;;;;;;;;;;;;;;20.23;18.33;101008.97;5101157;28;955;-37
2021/03/09 04:48:40;;;;;;;;;;;;;;;20.24;18.29;101004.44;5120313;28;847;-41
2021/03/09 04:51:11;;;;;;;;;;;;;;;19.73;18.48;100997.03;5100112;28;950;-41
2021/03/09 04:53:39;;;;;;;;;;;;;;;20.24;19.12;101002.63;5120141;28;1975;-42
2021/03/09 04:56:05;;;;;;;;;;;;;;;19.97;19.44;100993.25;5119136;28;903;-41
2021/03/09 04:58:30;;;;;;;;;;;;;;;22.48;19.62;100994.53;5120092;28;806;-38
2021/03/09 05:00:55;;;;;;;;;;;;;;;23.35;19.55;100989.91;5119300;28;826;-36
2021/03/09 05:03:23;;;;;;;;;;;;;;;24.20;19.48;101017.41;5120032;28;771;-38
2021/03/09 05:05:48;;;;;;;;;;;;;;;24.68;19.07;101003.59;5120021;28;1146;-34
2021/03/09 05:08:13;;;;;;;;;;;;;;;25.12;19.02;100991.88;5119656;28;767;-37
2021/03/09 05:10:39;;;;;;;;;;;;;;;25.09;19.17;100996.72;5119672;28;962;-38
2021/03/09 05:13:16;;;;;;;;;;;;;;;25.06;19.45;100989.81;5119848;28;1905;-43
2021/03/09 05:15:42;;;;;;;;;;;;;;;25.53;19.02;101004.56;5119452;28;791;-36
2021/03/09 05:18:07;;;;;;;;;;;;;;;25.87;18.81;101001.94;5119930;28;747;-39
2021/03/09 05:20:32;;;;;;;;;;;;;;;25.96;18.97;100998.22;5119928;28;779;-40
2021/03/09 05:22:58;;;;;;;;;;;;;;;25.69;19.39;101011.03;5119538;28;815;-38
2021/03/09 05:25:23;;;;;;;;;;;;;;;25.62;19.54;101010.81;5119505;28;791;-44
2021/03/09 05:27:48;;;;;;;;;;;;;;;25.43;19.83;101007.44;5100933;28;1017;-37
2021/03/09 05:30:14;;;;;;;;;;;;;;;25.96;19.00;101016.25;5119735;28;783;-38
2021/03/09 05:32:40;;;;;;;;;;;;;;;26.31;18.83;101005.28;5119247;28;1970;-44
2021/03/09 05:35:06;;;;;;;;;;;;;;;26.48;18.60;101012.34;5119675;28;823;-39
2021/03/09 05:37:31;;;;;;;;;;;;;;;25.89;19.30;101016.91;5119534;28;790;-37
2021/03/09 05:39:57;;;;;;;;;;;;;;;26.02;19.32;101024.53;5119055;28;893;-35
2021/03/09 05:42:44;;;;;;;;;;;;;;;25.54;19.96;101029.66;5119096;28;950;-38
2021/03/09 05:45:09;;;;;;;;;;;;;;;25.33;20.37;101039.03;5118007;28;1303;-36
2021/03/09 05:47:35;;;;;;;;;;;;;;;25.49;20.28;101045.47;5117520;28;1120;-36
2021/03/09 05:50:01;;;;;;;;;;;;;;;26.33;19.25;101059.91;5118495;28;808;-44
2021/03/09 05:52:26;;;;;;;;;;;;;;;26.46;19.36;101062.09;5118780;28;1913;-35
2021/03/09 05:54:51;;;;;;;;;;;;;;;25.91;19.90;101059.88;5118560;28;803;-37
2021/03/09 05:57:17;;;;;;;;;;;;;;;25.46;20.44;101068.19;5118778;28;986;-34
2021/03/09 05:59:42;;;;;;;;;;;;;;;25.21;20.89;101076.19;5118488;28;827;-38
2021/03/09 06:02:08;;;;;;;;;;;;;;;26.09;20.18;101080.44;5112188;27;808;-38
2021/03/09 06:04:34;;;;;;;;;;;;;;;26.19;20.01;101077.59;5139598;27;811;-33
2021/03/09 06:06:59;;;;;;;;;;;;;;;25.80;20.45;101094.25;5139437;27;759;-34
2021/03/09 06:09:34;;;;;;;;;;;;;;;25.41;20.86;101065.97;5139081;27;780;-34
2021/03/09 06:12:27;;;;;;;;;;;;;;;25.33;21.16;101105.50;5115715;27;974;-33
2021/03/09 06:14:55;;;;;;;;;;;;;;;24.55;22.25;101101.69;5079958;28;752;-35
2021/03/09 06:17:27;;;;;;;;;;;;;;;24.58;22.34;101111.28;5117746;28;914;-32
2021/03/09 06:19:52;;;;;;;;;;;;;;;25.18;21.70;101112.34;5118454;28;814;-35
2021/03/09 06:22:18;;;;;;;;;;;;;;;25.40;21.31;101115.47;5117954;28;839;-36
2021/03/09 06:24:44;;;;;;;;;;;;;;;25.56;21.16;101111.13;5117929;28;828;-39
2021/03/09 06:27:25;;;;;;;;;;;;;;;25.49;21.20;101126.28;5105131;28;946;-39
2021/03/09 06:29:51;;;;;;;;;;;;;;;24.97;21.98;101126.22;5079457;28;1100;-36
2021/03/09 06:32:16;;;;;;;;;;;;;;;25.05;21.96;101141.56;5097510;28;1964;-37
2021/03/09 06:34:41;;;;;;;;;;;;;;;25.20;21.63;101144.50;5097910;28;736;-38
2021/03/09 06:37:11;;;;;;;;;;;;;;;25.54;21.27;101140.94;5097323;28;771;-37
2021/03/09 06:39:44;;;;;;;;;;;;;;;25.55;21.16;101155.25;5097299;28;795;-36
2021/03/09 06:45:13;;;;;;;;;;;;;;;25.94;20.83;101158.44;5137587;27;1090;-38
2021/03/09 06:47:45;;;;;;;;;;;;;;;26.02;20.85;101166.53;5138341;27;916;-37
2021/03/09 06:50:17;;;;;;;;;;;;;;;25.58;21.24;101164.84;5138492;27;849;-33
2021/03/09 06:52:43;;;;;;;;;;;;;;;25.54;21.57;101170.56;5138054;27;1984;-36
2021/03/09 06:55:11;;;;;;;;;;;;;;;25.75;21.29;101169.34;5138394;27;818;-41
2021/03/09 06:57:37;;;;;;;;;;;;;;;26.25;20.71;101163.19;5138095;27;1032;-34
2021/03/09 07:00:04;;;;;;;;;;;;;;;25.92;21.04;101172.91;5137976;27;766;-36
2021/03/09 07:02:29;;;;;;;;;;;;;;;25.73;21.43;101173.19;5138245;27;806;-35
2021/03/09 07:05:07;;;;;;;;;;;;;;;25.73;21.45;101178.56;5138224;27;771;-37
2021/03/09 07:07:36;;;;;;;;;;;;;;;25.59;21.54;101178.16;5136944;27;831;-40
2021/03/09 07:10:05;;;;;;;;;;;;;;;25.95;21.11;101178.97;5137879;27;826;-37
2021/03/09 07:12:43;;;;;;;;;;;;;;;26.00;21.06;101177.50;5137603;27;1925;-37
2021/03/09 07:15:10;;;;;;;;;;;;;;;25.87;21.24;101174.41;5137479;27;786;-38
2021/03/09 07:17:36;;;;;;;;;;;;;;;25.76;21.63;101170.16;5138048;27;822;-39
2021/03/09 07:20:01;;;;;;;;;;;;;;;25.66;21.46;101173.84;5138187;27;755;-38
2021/03/09 07:22:27;;;;;;;;;;;;;;;26.34;20.79;101178.41;5137477;27;1024;-38
2021/03/09 07:25:08;;;;;;;;;;;;;;;26.68;20.47;101176.56;5137989;27;743;-37
2021/03/09 07:27:51;;;;;;;;;;;;;;;26.64;20.60;101175.22;5138061;27;1024;-42
2021/03/09 07:30:17;;;;;;;;;;;;;;;26.12;21.08;101175.31;5137609;27;826;-41
2021/03/09 07:32:43;;;;;;;;;;;;;;;25.98;21.50;101168.72;5137779;27;1977;-40
2021/03/09 07:35:09;;;;;;;;;;;;;;;25.54;21.71;101170.56;5119492;27;783;-43
2021/03/09 07:37:35;;;;;;;;;;;;;;;26.00;21.62;101172.09;5137072;27;821;-39
2021/03/09 07:40:01;;;;;;;;;;;;;;;26.16;21.07;101170.41;5137897;27;775;-40
2021/03/09 07:45:34;;;;;;;;;;;;;;;25.75;21.53;101177.41;5136968;27;1621;-39
2021/03/09 07:47:59;;;;;;;;;;;;;;;24.99;22.97;101182.56;5118289;27;965;-40
2021/03/09 07:50:25;;;;;;;;;;;;;;;25.34;22.39;101175.34;5137387;27;850;-38
2021/03/09 07:53:06;;;;;;;;;;;;;;;25.70;21.63;101181.59;5137222;27;1909;-43
2021/03/09 07:55:31;;;;;;;;;;;;;;;25.82;21.55;101184.84;5137443;28;782;-39
2021/03/09 07:58:13;;;;;;;;;;;;;;;25.64;21.84;101177.72;5136818;28;957;-38
2021/03/09 08:00:58;;;;;;;;;;;;;;;25.31;22.26;101175.66;5137355;28;729;-37
2021/03/09 08:03:27;;;;;;;;;;;;;;;25.80;21.70;101179.63;5137118;28;761;-38
2021/03/09 08:05:56;;;;;;;;;;;;;;;25.93;21.31;101179.16;5137223;28;814;-38
2021/03/09 08:08:45;;;;;;;;;;;;;;;25.92;21.46;101180.16;5137298;28;750;-41
2021/03/09 08:11:13;;;;;;;;;;;;;;;24.94;22.45;101180.34;5126105;28;1604;-38
2021/03/09 08:13:47;;;;;;;;;;;;;;;25.64;21.00;101177.72;5136617;28;1957;-36
2021/03/09 08:16:19;;;;;;;;;;;;;;;25.38;21.68;101183.97;5137118;28;827;-42
2021/03/09 08:18:45;;;;;;;;;;;;;;;25.09;22.15;101188.66;5139523;27;775;-38
2021/03/09 08:21:10;;;;;;;;;;;;;;;25.26;22.12;101178.84;5140820;27;518;-38
2021/03/09 08:23:36;;;;;;;;;;;;;;;25.56;21.57;101181.19;5123160;27;826;-37
2021/03/09 08:26:02;;;;;;;;;;;;;;;25.41;21.67;101183.63;5141132;27;949;-39
2021/03/09 08:28:31;;;;;;;;;;;;;;;25.34;21.96;101190.69;5140734;27;917;-34
2021/03/09 08:31:11;;;;;;;;;;;;;;;25.50;21.89;101184.53;5115172;22;1760;-38
2021/03/09 08:34:02;;;;;;;;;;;;;;;25.58;22.02;101179.16;5100315;28;1913;-39
2021/03/09 08:36:32;;;;;;;;;;;;;;;25.52;21.79;101190.59;5069069;28;1254;-37
2021/03/09 08:39:13;;;;;;;;;;;;;;;25.48;22.08;101186.53;5081604;28;1008;-36
2021/03/09 08:41:41;;;;;;;;;;;;;;;24.61;23.28;101183.59;5091111;28;1017;-38
2021/03/09 08:44:13;;;;;;;;;;;;;;;24.73;23.29;101189.59;5079297;28;774;-35
2021/03/09 08:46:57;;;;;;;;;;;;;;;25.44;22.33;101196.81;5093385;28;797;-35
2021/03/09 08:49:34;;;;;;;;;;;;;;;25.58;21.98;101194.47;5100395;28;826;-39
2021/03/09 08:52:09;;;;;;;;;;;;;;;25.72;21.92;101203.84;5099704;28;798;-41
2021/03/09 08:54:41;;;;;;;;;;;;;;;25.26;22.65;101203.09;5099920;28;1902;-37
2021/03/09 08:57:10;;;;;;;;;;;;;;;25.60;22.20;101205.94;5086910;28;935;-39
2021/03/09 08:59:36;;;;;;;;;;;;;;;25.73;21.94;101202.81;5078896;28;749;-34
2021/03/09 09:02:07;;;;;;;;;;;;;;;25.38;22.82;101200.13;5079573;28;729;-35
2021/03/09 09:04:33;;;;;;;;;;;;;;;25.89;22.17;101207.44;5079399;28;767;-38
2021/03/09 09:06:58;;;;;;;;;;;;;;;25.68;22.12;101206.00;5078941;28;815;-43
2021/03/09 09:09:36;;;;;;;;;;;;;;;25.74;22.34;101210.75;5079314;28;763;-37
2021/03/09 09:12:20;;;;;;;;;;;;;;;25.91;22.29;101211.66;5090675;28;1006;-35
2021/03/09 09:14:46;;;;;;;;;;;;;;;26.03;22.27;101205.97;5096211;28;812;-36
2021/03/09 09:17:11;;;;;;;;;;;;;;;25.75;22.43;101200.81;5078620;28;810;-43
2021/03/09 09:19:37;;;;;;;;;;;;;;;25.63;22.52;101194.88;5077662;28;814;-37
2021/03/09 09:22:02;;;;;;;;;;;;;;;25.82;22.46;101193.78;5078843;28;810;-36
2021/03/09 09:24:27;;;;;;;;;;;;;;;25.15;23.41;101193.44;5079527;28;767;-39
2021/03/09 09:26:59;;;;;;;;;;;;;;;25.59;22.76;101193.50;5069480;28;1335;-37
2021/03/09 09:29:25;;;;;;;;;;;;;;;25.77;22.45;101191.59;5077674;28;1245;-38
2021/03/09 09:31:54;;;;;;;;;;;;;;;25.77;22.54;101198.81;5078701;28;838;-42
2021/03/09 09:34:19;;;;;;;;;;;;;;;25.76;22.60;101197.09;5078399;28;1910;-38
2021/03/09 09:36:44;;;;;;;;;;;;;;;25.76;22.52;101207.88;5078565;28;802;-44
2021/03/09 09:39:09;;;;;;;;;;;;;;;25.81;22.57;101205.56;5078677;28;771;-36
2021/03/09 09:41:35;;;;;;;;;;;;;;;25.80;22.59;101210.13;5086794;28;963;-36
2021/03/09 09:44:03;;;;;;;;;;;;;;;26.07;22.37;101210.03;5098412;28;807;-37
2021/03/09 09:46:28;;;;;;;;;;;;;;;26.00;22.25;101209.84;5098910;28;807;-35
2021/03/09 09:48:54;;;;;;;;;;;;;;;25.94;22.49;101207.81;5080758;28;763;-36
2021/03/09 09:51:20;;;;;;;;;;;;;;;25.87;22.54;101206.75;5080313;28;775;-37
2021/03/09 09:53:46;;;;;;;;;;;;;;;25.96;22.41;101213.84;5098610;28;1902;-37
2021/03/09 09:56:12;;;;;;;;;;;;;;;25.99;22.50;101212.69;5093459;28;919;-41
2021/03/09 09:58:41;;;;;;;;;;;;;;;26.22;22.15;101202.13;5078412;28;772;-37
2021/03/09 10:01:07;;;;;;;;;;;;;;;26.03;22.34;101209.50;5060221;28;826;-38
2021/03/09 10:03:32;;;;;;;;;;;;;;;26.16;22.02;101214.41;5078359;28;822;-42
2021/03/09 10:06:05;;;;;;;;;;;;;;;26.08;22.42;101218.94;5077901;28;837;-41
2021/03/09 10:08:34;;;;;;;;;;;;;;;26.12;22.32;101220.31;5060151;28;1364;-41
2021/03/09 10:11:00;;;;;;;;;;;;;;;25.97;22.63;101214.72;5081302;28;943;-39
2021/03/09 10:13:59;;;;;;;;;;;;;;;25.99;22.48;101213.53;5098470;28;1901;-37
2021/03/09 10:16:40;;;;;;;;;;;;;;;25.95;22.48;101203.25;5098320;28;782;-38
2021/03/09 10:19:08;;;;;;;;;;;;;;;25.22;23.49;101203.56;5098217;28;719;-38
2021/03/09 10:21:34;;;;;;;;;;;;;;;26.29;22.32;101203.13;5098017;28;744;-43
2021/03/09 10:24:00;;;;;;;;;;;;;;;26.65;21.88;101201.19;5080097;28;854;-42
2021/03/09 10:26:35;;;;;;;;;;;;;;;26.20;22.31;101203.28;5091099;28;1001;-38
2021/03/09 10:29:01;;;;;;;;;;;;;;;25.28;20.66;101203.78;5077241;28;806;-38
2021/03/09 10:31:26;;;;;;;;;;;;;;;25.75;21.23;101200.81;5077649;28;1164;-41
2021/03/09 10:34:01;;;;;;;;;;;;;;;25.61;22.46;101195.00;5077692;28;1969;-38
2021/03/09 10:36:26;;;;;;;;;;;;;;;25.86;22.22;101205.09;5077112;28;821;-34
2021/03/09 10:39:09;;;;;;;;;;;;;;;25.67;22.60;101194.38;5078027;28;897;-37
2021/03/09 10:41:34;;;;;;;;;;;;;;;25.71;22.59;101197.59;5077679;28;963;-35
2021/03/09 10:43:59;;;;;;;;;;;;;;;25.00;23.51;101195.00;5076896;28;799;-35
2021/03/09 10:46:25;;;;;;;;;;;;;;;25.33;23.23;101197.91;5077842;28;787;-37
2021/03/09 10:48:50;;;;;;;;;;;;;;;26.00;22.53;101206.28;5077461;28;775;-38
2021/03/09 10:51:18;;;;;;;;;;;;;;;25.83;22.51;101208.09;5077131;28;783;-36
2021/03/09 10:53:44;;;;;;;;;;;;;;;25.83;22.69;101206.25;5077342;28;1971;-37
2021/03/09 10:56:09;;;;;;;;;;;;;;;25.38;23.57;101210.88;5081146;28;930;-36
2021/03/09 10:58:35;;;;;;;;;;;;;;;26.02;22.67;101217.75;5097410;28;775;-39
2021/03/09 11:01:00;;;;;;;;;;;;;;;25.77;23.00;101207.75;5097786;28;779;-37
2021/03/09 11:03:25;;;;;;;;;;;;;;;25.65;23.05;101207.19;5097285;28;886;-37
2021/03/09 11:05:51;;;;;;;;;;;;;;;25.48;23.36;101205.38;5078755;28;1087;-37
2021/03/09 11:08:16;;;;;;;;;;;;;;;25.73;23.25;101206.38;5097446;28;735;-38
2021/03/09 11:10:42;;;;;;;;;;;;;;;25.81;22.89;101194.78;5096030;28;947;-35
2021/03/09 11:13:34;;;;;;;;;;;;;;;25.86;23.00;101200.53;5096797;28;1926;-36
2021/03/09 11:16:00;;;;;;;;;;;;;;;25.95;22.80;101208.63;5097421;28;759;-36
2021/03/09 11:18:25;;;;;;;;;;;;;;;26.23;22.64;101211.06;5097402;28;537;-43
2021/03/09 11:20:52;;;;;;;;;;;;;;;25.88;22.79;101211.13;5096708;28;763;-43
2021/03/09 11:23:19;;;;;;;;;;;;;;;25.76;23.12;101197.97;5096735;28;819;-43
2021/03/09 11:25:45;;;;;;;;;;;;;;;25.59;23.29;101204.28;5095720;28;955;-36
2021/03/09 11:28:10;;;;;;;;;;;;;;;25.67;23.38;101193.56;5096660;28;791;-36
2021/03/09 11:30:36;;;;;;;;;;;;;;;26.12;22.73;101193.34;5096586;28;1190;-36
2021/03/09 11:33:01;;;;;;;;;;;;;;;25.98;22.85;101189.44;5096937;28;1963;-38
2021/03/09 11:35:26;;;;;;;;;;;;;;;26.02;22.89;101190.81;5097083;28;708;-36
2021/03/09 11:37:51;;;;;;;;;;;;;;;26.06;22.85;101181.34;5096780;28;783;-42
2021/03/09 11:40:17;;;;;;;;;;;;;;;26.39;22.39;101175.22;5096828;28;771;-34
2021/03/09 11:42:42;;;;;;;;;;;;;;;25.95;22.89;101176.28;5095385;28;1009;-37
2021/03/09 11:45:07;;;;;;;;;;;;;;;25.94;22.92;101175.47;5096599;28;799;-36
2021/03/09 11:47:33;;;;;;;;;;;;;;;25.98;23.01;101175.94;5096964;28;731;-42
2021/03/09 11:49:58;;;;;;;;;;;;;;;26.68;21.97;101176.56;5096276;28;789;-43
2021/03/09 11:52:23;;;;;;;;;;;;;;;26.78;22.08;101185.31;5096221;28;1901;-36
2021/03/09 11:54:49;;;;;;;;;;;;;;;26.21;22.54;101186.94;5096097;28;788;-44
2021/03/09 11:57:14;;;;;;;;;;;;;;;26.15;22.83;101174.13;5095385;28;954;-33
2021/03/09 11:59:40;;;;;;;;;;;;;;;25.59;23.75;101177.34;5096572;28;894;-38
2021/03/09 12:02:05;;;;;;;;;;;;;;;26.73;22.22;101171.50;5096728;28;767;-35
2021/03/09 12:04:30;;;;;;;;;;;;;;;26.01;23.15;101154.06;5096247;28;795;-36
2021/03/09 12:06:56;;;;;;;;;;;;;;;26.06;23.05;101165.19;5096643;28;941;-35
2021/03/09 12:09:21;;;;;;;;;;;;;;;25.92;23.32;101162.13;5096455;28;835;-39
2021/03/09 12:11:46;;;;;;;;;;;;;;;25.14;24.46;101159.44;5095135;28;990;-38
2021/03/09 12:14:27;;;;;;;;;;;;;;;25.40;23.95;101163.09;5096580;28;1965;-38
2021/03/09 12:16:52;;;;;;;;;;;;;;;25.64;23.55;101161.56;5077837;28;771;-39
2021/03/09 12:19:20;;;;;;;;;;;;;;;25.65;23.49;101157.84;5095872;28;794;-39
2021/03/09 12:21:46;;;;;;;;;;;;;;;26.24;22.81;101158.81;5096425;28;751;-41
2021/03/09 12:24:11;;;;;;;;;;;;;;;26.83;22.10;101149.72;5096484;28;798;-39
2021/03/09 12:26:36;;;;;;;;;;;;;;;27.05;21.63;101150.03;5094916;28;943;-38
2021/03/09 12:29:02;;;;;;;;;;;;;;;26.22;22.65;101145.50;5096353;28;811;-38
2021/03/09 12:31:27;;;;;;;;;;;;;;;25.94;23.08;101142.25;5096133;28;1344;-39
2021/03/09 12:33:53;;;;;;;;;;;;;;;25.07;24.42;101143.06;5095673;28;1913;-38
2021/03/09 12:36:18;;;;;;;;;;;;;;;24.63;25.17;101135.88;5096350;28;755;-41
2021/03/09 12:38:43;;;;;;;;;;;;;;;25.55;23.93;101141.78;5096268;28;755;-38
2021/03/09 12:41:09;;;;;;;;;;;;;;;25.81;23.27;101140.88;5094499;28;1009;-39
2021/03/09 12:43:46;;;;;;;;;;;;;;;26.01;23.08;101140.56;5095790;28;886;-37
2021/03/09 12:46:11;;;;;;;;;;;;;;;25.21;24.18;101139.97;5096399;28;680;-39
2021/03/09 12:48:37;;;;;;;;;;;;;;;26.04;23.33;101141.09;5095716;28;731;-39
2021/03/09 12:51:02;;;;;;;;;;;;;;;25.85;23.26;101142.25;5095797;28;830;-41
2021/03/09 12:53:28;;;;;;;;;;;;;;;25.84;23.32;101147.81;5095674;28;1976;-40
2021/03/09 12:55:53;;;;;;;;;;;;;;;24.88;24.80;101146.81;5094473;28;974;-36
2021/03/09 12:58:18;;;;;;;;;;;;;;;25.09;24.62;101137.53;5096088;28;744;-41
2021/03/09 13:00:43;;;;;;;;;;;;;;;25.35;24.31;101141.19;5095514;28;787;-37
2021/03/09 13:03:09;;;;;;;;;;;;;;;25.72;23.67;101142.72;5095372;28;488;-37
2021/03/09 13:05:34;;;;;;;;;;;;;;;25.70;23.61;101150.13;5097381;28;802;-36